Time;durP1;ratioP1;P1;durP2;ratioP2;P2;SDS_P1;SDS_P2;PMS_P1;PMS_P2;Temp;Humidity;BMP_temperature;BMP_pressure;BME280_temperature;BME280_humidity;BME280_pressure;Samples;Min_cycle;Max_cycle;Signal;HPM_P1;HPM_P2
2021/10/25 00:01:00;;;;;;;12.50;8.00;;;;;;;;;;5059860;28;20501;-87
2021/10/25 00:03:29;;;;;;;13.03;9.20;;;;;;;;;;5054937;28;20459;-87
2021/10/25 00:05:58;;;;;;;9.20;8.40;;;;;;;;;;5057350;28;20839;-90
2021/10/25 00:08:25;;;;;;;16.00;9.00;;;;;;;;;;5056110;28;20783;-86
2021/10/25 00:10:52;;;;;;;10.27;8.23;;;;;;;;;;5055418;28;20922;-91
2021/10/25 00:13:20;;;;;;;11.60;8.27;;;;;;;;;;5055775;28;20520;-87
2021/10/25 00:15:47;;;;;;;9.13;7.33;;;;;;;;;;5056376;28;20455;-86
2021/10/25 00:18:14;;;;;;;9.43;8.27;;;;;;;;;;5054067;28;20453;-90
2021/10/25 00:20:42;;;;;;;9.13;7.63;;;;;;;;;;5055829;28;20501;-87
2021/10/25 00:23:10;;;;;;;10.53;8.50;;;;;;;;;;5057171;28;20518;-89
2021/10/25 00:25:37;;;;;;;10.40;8.60;;;;;;;;;;5051853;28;20461;-92
2021/10/25 00:28:05;;;;;;;11.70;8.40;;;;;;;;;;5056615;28;20474;-88
2021/10/25 00:30:32;;;;;;;8.23;7.33;;;;;;;;;;5058855;28;20446;-91
2021/10/25 00:32:59;;;;;;;11.33;8.60;;;;;;;;;;5063336;28;20500;-93
2021/10/25 00:35:27;;;;;;;10.37;8.40;;;;;;;;;;5059617;28;20446;-93
2021/10/25 00:37:54;;;;;;;11.70;9.20;;;;;;;;;;5059753;28;20446;-89
2021/10/25 00:40:23;;;;;;;12.93;8.27;;;5.40;99.90;;;;;;5062700;28;20578;-95
2021/10/25 00:42:50;;;;;;;11.13;8.00;;;;;;;;;;5064667;28;20473;-88
2021/10/25 00:45:17;;;;;;;12.20;8.50;;;;;;;;;;5072175;28;20443;-86
2021/10/25 00:47:44;;;;;;;11.13;8.30;;;;;;;;;;5071156;28;20451;-86
2021/10/25 00:50:12;;;;;;;14.63;9.33;;;;;;;;;;5067091;28;20957;-89
2021/10/25 00:52:40;;;;;;;11.23;8.20;;;;;;;;;;5064240;28;20482;-88
2021/10/25 00:55:08;;;;;;;9.10;7.43;;;5.80;99.90;;;;;;5066429;28;20461;-87
2021/10/25 00:57:37;;;;;;;11.43;8.63;;;5.50;99.90;;;;;;5066851;28;20443;-88
2021/10/25 01:00:07;;;;;;;11.43;9.20;;;5.70;99.90;;;;;;5056690;28;20518;-87
2021/10/25 01:02:34;;;;;;;11.80;9.23;;;;;;;;;;5058846;28;20882;-87
2021/10/25 01:05:01;;;;;;;12.40;9.80;;;;;;;;;;5072619;28;20454;-93
2021/10/25 01:07:28;;;;;;;10.93;8.60;;;;;;;;;;5079511;28;20454;-88
2021/10/25 01:09:56;;;;;;;9.60;8.13;;;;;;;;;;5075791;28;20445;-88
2021/10/25 01:12:23;;;;;;;10.40;8.27;;;;;;;;;;5079369;28;20453;-87
2021/10/25 01:14:51;;;;;;;8.90;8.00;;;;;;;;;;5078087;28;20446;-89
2021/10/25 01:17:18;;;;;;;11.10;8.60;;;;;;;;;;5082646;28;20461;-87
2021/10/25 01:19:46;;;;;;;11.70;8.40;;;;;;;;;;5084093;28;20445;-87
2021/10/25 01:22:14;;;;;;;11.07;8.67;;;5.80;99.90;;;;;;5081948;28;20495;-89
2021/10/25 01:24:43;;;;;;;14.13;8.87;;;5.80;99.90;;;;;;5080314;28;20454;-87
2021/10/25 01:27:10;;;;;;;10.00;8.20;;;;;;;;;;5081831;28;20995;-87
2021/10/25 01:29:38;;;;;;;12.97;8.50;;;;;;;;;;5081580;28;20817;-91
2021/10/25 01:32:05;;;;;;;9.00;7.80;;;;;;;;;;5083144;28;20446;-86
2021/10/25 01:34:32;;;;;;;9.80;7.40;;;;;;;;;;5076649;28;20468;-86
2021/10/25 01:37:00;;;;;;;10.13;8.03;;;;;;;;;;5075797;28;20461;-88
2021/10/25 01:39:29;;;;;;;8.90;7.20;;;;;;;;;;5075297;28;20484;-87
2021/10/25 01:41:56;;;;;;;7.97;7.17;;;;;;;;;;5074762;28;20489;-86
2021/10/25 01:44:23;;;;;;;12.10;7.70;;;;;;;;;;5076352;28;20452;-87
2021/10/25 01:46:51;;;;;;;14.30;6.87;;;;;;;;;;5077455;28;20453;-88
2021/10/25 01:49:18;;;;;;;8.40;7.07;;;;;;;;;;5077725;28;20452;-89
2021/10/25 01:51:45;;;;;;;10.70;8.10;;;;;;;;;;5077917;28;20446;-87
2021/10/25 01:54:12;;;;;;;8.13;7.10;;;5.30;99.90;;;;;;5077676;28;20477;-87
2021/10/25 01:56:44;;;;;;;8.63;7.07;;;5.20;99.90;;;;;;5079276;28;20456;-87
2021/10/25 01:59:11;;;;;;;11.33;7.57;;;;;;;;;;5047805;28;20446;-89
2021/10/25 02:01:38;;;;;;;8.10;6.90;;;;;;;;;;5073395;28;21044;-89
2021/10/25 02:04:06;;;;;;;11.57;7.27;;;5.00;99.90;;;;;;5080405;28;20452;-87
2021/10/25 02:06:34;;;;;;;7.67;6.60;;;;;;;;;;5080486;28;20441;-88
2021/10/25 02:09:01;;;;;;;9.30;7.07;;;;;;;;;;5083387;28;20443;-89
2021/10/25 02:11:28;;;;;;;8.40;7.07;;;;;;;;;;5081800;28;20453;-89
2021/10/25 02:13:57;;;;;;;10.27;7.37;;;4.80;99.90;;;;;;5082369;28;20453;-89
2021/10/25 02:16:24;;;;;;;6.63;5.50;;;;;;;;;;5082284;28;20479;-88
2021/10/25 02:18:52;;;;;;;8.17;6.13;;;;;;;;;;5083274;28;20453;-91
2021/10/25 02:21:19;;;;;;;6.57;5.57;;;;;;;;;;5082685;28;20499;-86
2021/10/25 02:23:46;;;;;;;8.43;6.00;;;;;;;;;;5089692;28;20449;-86
2021/10/25 02:26:14;;;;;;;9.30;6.60;;;;;;;;;;5084519;28;20449;-86
2021/10/25 02:28:41;;;;;;;7.40;6.40;;;;;;;;;;5083611;28;20437;-88
2021/10/25 02:31:09;;;;;;;10.90;6.70;;;4.40;99.90;;;;;;5044431;28;20511;-86
2021/10/25 02:33:36;;;;;;;6.47;5.50;;;;;;;;;;5046255;28;20962;-88
2021/10/25 02:36:06;;;;;;;7.60;6.10;;;;;;;;;;5081995;28;20836;-88
2021/10/25 02:38:34;;;;;;;8.80;6.37;;;;;;;;;;5080626;28;20523;-87
2021/10/25 02:41:01;;;;;;;7.10;6.33;;;;;;;;;;5076297;28;20493;-87
2021/10/25 02:43:29;;;;;;;11.70;5.60;;;;;;;;;;5079259;28;20878;-92
2021/10/25 02:45:57;;;;;;;8.77;6.47;;;;;;;;;;5080382;28;20450;-86
2021/10/25 02:48:26;;;;;;;8.00;6.23;;;4.00;99.90;;;;;;5080180;28;20456;-87
2021/10/25 02:50:53;;;;;;;7.23;5.90;;;;;;;;;;5080858;28;20457;-90
2021/10/25 02:53:21;;;;;;;6.60;5.83;;;;;;;;;;5078352;28;21056;-90
2021/10/25 02:55:48;;;;;;;7.47;5.77;;;;;;;;;;5079688;28;20822;-87
2021/10/25 02:58:15;;;;;;;8.00;6.70;;;;;;;;;;5080752;28;20446;-88
2021/10/25 03:00:42;;;;;;;8.27;5.80;;;;;;;;;;5076042;28;20484;-87
2021/10/25 03:03:10;;;;;;;7.00;5.93;;;;;;;;;;5075045;28;20492;-88
2021/10/25 03:05:39;;;;;;;7.03;5.83;;;;;;;;;;5078756;28;20449;-86
2021/10/25 03:08:07;;;;;;;9.30;6.53;;;;;;;;;;5078844;28;20450;-87
2021/10/25 03:10:34;;;;;;;7.37;5.67;;;;;;;;;;5077839;28;20454;-87
2021/10/25 03:13:01;;;;;;;7.40;5.60;;;;;;;;;;5077857;28;20441;-89
2021/10/25 03:15:28;;;;;;;5.60;4.70;;;;;;;;;;5078931;28;20442;-91
2021/10/25 03:17:55;;;;;;;8.70;5.80;;;;;;;;;;5083431;28;20450;-94
2021/10/25 03:20:22;;;;;;;6.77;5.43;;;;;;;;;;5078083;28;20837;-87
2021/10/25 03:22:50;;;;;;;6.97;5.00;;;4.00;99.90;;;;;;5078887;28;20453;-86
2021/10/25 03:25:18;;;;;;;6.07;4.87;;;;;;;;;;5077363;28;20457;-92
2021/10/25 03:27:46;;;;;;;6.50;4.67;;;;;;;;;;5077518;28;20442;-86
2021/10/25 03:30:13;;;;;;;6.53;4.50;;;;;;;;;;5074951;28;20540;-87
2021/10/25 03:32:41;;;;;;;5.47;4.70;;;;;;;;;;5081214;28;20449;-86
2021/10/25 03:35:08;;;;;;;5.37;4.50;;;;;;;;;;5082669;28;20533;-93
2021/10/25 03:37:37;;;;;;;9.40;4.70;;;;;;;;;;5077181;28;20456;-89
2021/10/25 03:40:08;;;;;;;5.07;4.40;;;3.70;99.90;;;;;;5061643;28;20446;-86
2021/10/25 03:42:40;;;;;;;5.63;4.83;;;;;;;;;;5079037;28;20559;-90
2021/10/25 03:45:14;;;;;;;6.10;4.70;;;3.70;99.90;;;;;;5081770;28;20461;-90
2021/10/25 03:47:46;;;;;;;7.20;5.00;;;3.60;99.90;;;;;;5079574;28;20460;-87
2021/10/25 03:50:15;;;;;;;6.63;4.73;;;;;;;;;;5082730;28;20457;-88
2021/10/25 03:52:49;;;;;;;4.80;4.30;;;4.10;99.90;;;;;;5087840;28;20483;-87
2021/10/25 03:55:23;;;;;;;7.70;4.80;;;3.60;99.90;;;;;;5080156;28;20450;-91
2021/10/25 03:58:19;;;;;;;6.00;4.60;;;;;;;;;;5078550;28;20453;-87
2021/10/25 04:25:49;;;;;;;8.13;6.67;;;;;;;;;;5055107;28;20526;-87
2021/10/25 04:28:20;;;;;;;10.10;5.97;;;;;;;;;;5062669;28;20438;-85
2021/10/25 04:30:54;;;;;;;6.50;5.60;;;;;;;;;;5067080;28;20449;-85
2021/10/25 04:33:22;;;;;;;7.80;6.07;;;;;;;;;;5062613;28;20782;-87
2021/10/25 04:35:49;;;;;;;8.20;5.83;;;;;;;;;;5063005;28;20527;-86
2021/10/25 04:38:16;;;;;;;6.90;5.50;;;;;;;;;;5058241;28;20478;-87
2021/10/25 04:40:44;;;;;;;9.93;5.47;;;;;;;;;;5063770;28;20473;-91
2021/10/25 04:43:13;;;;;;;7.67;6.30;;;;;;;;;;5062930;28;20438;-86
2021/10/25 04:45:44;;;;;;;7.33;5.23;;;3.20;99.90;;;;;;5062616;28;21001;-90
2021/10/25 04:48:12;;;;;;;7.80;6.13;;;;;;;;;;5059357;28;20439;-88
2021/10/25 04:50:41;;;;;;;8.73;5.47;;;;;;;;;;5063590;28;20459;-89
2021/10/25 04:53:08;;;;;;;11.47;7.50;;;;;;;;;;5079740;28;20474;-86
2021/10/25 04:55:35;;;;;;;7.90;5.70;;;;;;;;;;5077814;28;20453;-86
2021/10/25 04:58:02;;;;;;;9.40;6.17;;;;;;;;;;5072306;28;20442;-83
2021/10/25 05:00:30;;;;;;;9.07;6.93;;;;;;;;;;5061363;28;20465;-87
2021/10/25 05:02:59;;;;;;;14.03;7.73;;;3.20;99.90;;;;;;5061619;28;20446;-93
2021/10/25 05:05:27;;;;;;;12.80;7.97;;;;;;;;;;5065004;28;20447;-87
2021/10/25 05:07:54;;;;;;;13.83;8.87;;;;;;;;;;5054014;28;20886;-87
2021/10/25 05:10:21;;;;;;;13.33;8.87;;;;;;;;;;5057569;28;20496;-86
2021/10/25 05:12:48;;;;;;;11.30;8.43;;;;;;;;;;5057005;28;20953;-86
2021/10/25 05:15:15;;;;;;;17.83;10.63;;;;;;;;;;5055209;28;20447;-86
2021/10/25 05:17:42;;;;;;;19.03;13.30;;;;;;;;;;5052276;28;20482;-87
2021/10/25 05:20:12;;;;;;;15.53;10.70;;;3.10;99.90;;;;;;5058447;28;20442;-86
2021/10/25 05:22:39;;;;;;;17.97;11.50;;;;;;;;;;5063679;28;20505;-89
2021/10/25 05:25:06;;;;;;;18.13;11.37;;;3.10;99.90;;;;;;5054577;28;20450;-90
2021/10/25 05:27:34;;;;;;;30.27;16.57;;;;;;;;;;5054026;28;20454;-86
2021/10/25 05:30:01;;;;;;;27.57;13.20;;;;;;;;;;5054692;28;20478;-91
2021/10/25 05:32:29;;;;;;;24.73;13.30;;;;;;;;;;5053187;28;20446;-88
2021/10/25 05:34:56;;;;;;;20.20;11.90;;;;;;;;;;5054887;28;20457;-88
2021/10/25 05:37:26;;;;;;;16.07;9.90;;;;;;;;;;5053134;28;20450;-88
2021/10/25 05:39:56;;;;;;;22.33;13.93;;;;;;;;;;5054349;28;21008;-87
2021/10/25 05:42:25;;;;;;;18.60;10.97;;;2.90;99.90;;;;;;5059847;28;20516;-91
2021/10/25 05:44:52;;;;;;;14.07;11.33;;;;;;;;;;5062062;28;20449;-90
2021/10/25 05:47:19;;;;;;;15.00;10.87;;;;;;;;;;5061587;28;20443;-86
2021/10/25 05:50:03;;;;;;;15.33;10.60;;;2.80;99.90;;;;;;5062277;28;20950;-87
2021/10/25 05:52:32;;;;;;;19.50;12.43;;;2.80;99.90;;;;;;5057493;28;20500;-87
2021/10/25 05:54:59;;;;;;;14.87;11.27;;;;;;;;;;5059236;28;20446;-88
2021/10/25 05:57:27;;;;;;;18.40;11.70;;;;;;;;;;5060012;28;20450;-88
2021/10/25 05:59:55;;;;;;;14.63;10.17;;;;;;;;;;5020190;28;20437;-90
2021/10/25 06:02:35;;;;;;;15.10;9.90;;;;;;;;;;5026833;28;20594;-89
2021/10/25 06:05:05;;;;;;;17.70;10.60;;;2.80;99.90;;;;;;5000054;28;20449;-90
2021/10/25 06:07:35;;;;;;;16.63;11.27;;;2.80;99.90;;;;;;5000009;28;20446;-89
2021/10/25 06:10:02;;;;;;;14.93;11.80;;;;;;;;;;4997642;28;20447;-87
2021/10/25 06:12:37;;;;;;;18.30;10.80;;;;;;;;;;4999891;28;20445;-91
2021/10/25 06:15:10;;;;;;;18.50;12.17;;;;;;;;;;5001785;28;20456;-91
2021/10/25 06:17:51;;;;;;;17.47;10.77;;;;;;;;;;5030005;28;20441;-89
2021/10/25 06:20:18;;;;;;;21.73;10.30;;;;;;;;;;5084266;28;20449;-89
2021/10/25 06:22:46;;;;;;;17.00;10.17;;;2.70;99.90;;;;;;5080233;28;20847;-87
2021/10/25 06:25:14;;;;;;;14.53;9.07;;;;;;;;;;5080285;28;20475;-87
2021/10/25 06:27:44;;;;;;;16.73;9.73;;;2.90;99.90;;;;;;5083072;28;20477;-89
2021/10/25 06:30:11;;;;;;;16.67;10.30;;;3.40;99.90;;;;;;5083543;28;20445;-91
2021/10/25 06:32:38;;;;;;;12.43;9.03;;;;;;;;;;5080830;28;20456;-86
2021/10/25 06:35:08;;;;;;;11.23;8.80;;;2.90;99.90;;;;;;5077319;28;20449;-88
2021/10/25 06:37:49;;;;;;;12.63;8.37;;;;;;;;;;5071821;28;20457;-87
2021/10/25 06:40:17;;;;;;;13.80;8.80;;;;;;;;;;5075563;28;20449;-88
2021/10/25 06:42:45;;;;;;;13.40;9.40;;;;;;;;;;5077528;28;20453;-87
2021/10/25 06:45:15;;;;;;;13.10;9.43;;;;;;;;;;5077695;28;20433;-87
2021/10/25 06:47:42;;;;;;;12.67;9.30;;;;;;;;;;5072088;28;20449;-90
2021/10/25 06:50:10;;;;;;;12.27;7.43;;;2.60;99.90;;;;;;5086586;28;20438;-88
2021/10/25 06:52:37;;;;;;;11.90;9.37;;;;;;;;;;5082117;28;20505;-90
2021/10/25 06:55:05;;;;;;;13.10;9.27;;;3.50;99.90;;;;;;5074006;28;20804;-90
2021/10/25 06:57:33;;;;;;;15.90;8.97;;;3.60;99.90;;;;;;5073249;28;20450;-92
2021/10/25 07:00:02;;;;;;;12.57;9.23;;;;;;;;;;5051109;28;20451;-86
2021/10/25 07:02:29;;;;;;;12.10;8.40;;;;;;;;;;5035247;28;20444;-86
2021/10/25 07:04:57;;;;;;;16.00;9.90;;;;;;;;;;5034770;28;20460;-86
2021/10/25 07:07:26;;;;;;;12.10;8.90;;;;;;;;;;5034888;28;20455;-86
2021/10/25 07:09:55;;;;;;;11.83;8.97;;;;;;;;;;5033785;28;20447;-86
2021/10/25 07:12:23;;;;;;;11.47;8.90;;;;;;;;;;5034680;28;20585;-86
2021/10/25 07:14:54;;;;;;;17.30;8.97;;;4.30;99.90;;;;;;5031709;28;20488;-86
2021/10/25 07:17:28;;;;;;;16.17;9.73;;;;;;;;;;5046690;28;20482;-86
2021/10/25 08:06:54;;;;;;;25.30;7.77;;;;;;;;;;5059856;28;20442;-92
2021/10/25 08:09:36;;;;;;;15.93;6.90;;;;;;;;;;5056939;28;20513;-93
2021/10/25 08:12:05;;;;;;;21.70;6.07;;;;;;;;;;5057696;28;20485;-93
2021/10/25 08:14:32;;;;;;;13.23;7.30;;;;;;;;;;5054589;28;20458;-90
2021/10/25 08:17:01;;;;;;;17.90;6.87;;;;;;;;;;5060392;28;20446;-88
2021/10/25 08:19:30;;;;;;;22.13;6.77;;;10.50;99.90;;;;;;5063855;28;20868;-88
2021/10/25 08:21:59;;;;;;;23.20;7.40;;;10.20;99.90;;;;;;5058907;28;20497;-88
2021/10/25 08:24:27;;;;;;;16.20;7.53;;;10.20;99.90;;;;;;5059918;28;20500;-89
2021/10/25 08:26:55;;;;;;;13.63;4.60;;;;;;;;;;5059896;28;20477;-88
2021/10/25 08:29:23;;;;;;;7.27;4.70;;;10.20;99.90;;;;;;5059642;28;20445;-91
2021/10/25 08:31:56;;;;;;;9.93;4.87;;;10.60;99.90;;;;;;5059256;28;20489;-95
2021/10/25 08:39:57;;;;;;;12.90;6.33;;;;;;;;;;5055229;28;20514;-88
2021/10/25 08:42:26;;;;;;;8.03;4.77;;;10.90;99.90;;;;;;5060670;28;20446;-88
2021/10/25 08:44:58;;;;;;;8.80;4.50;;;11.00;99.90;;;;;;5056294;28;20443;-90
2021/10/25 08:47:28;;;;;;;9.30;3.70;;;;;;;;;;5051379;28;20438;-89
2021/10/25 08:49:56;;;;;;;7.90;3.70;;;;;;;;;;5056393;28;20545;-90
2021/10/25 08:52:26;;;;;;;3.63;3.23;;;11.10;99.90;;;;;;5057804;28;20500;-91
2021/10/25 08:54:53;;;;;;;3.40;3.07;;;;;;;;;;5060211;28;20438;-92
2021/10/25 08:59:58;;;;;;;5.23;3.57;;;11.20;99.90;;;;;;5080966;23;20488;-89
2021/10/25 09:02:26;;;;;;;4.23;2.90;;;;;;;;;;5081962;28;20234;-90
2021/10/25 09:05:04;;;;;;;2.77;2.47;;;11.00;99.90;;;;;;5082714;28;20454;-88
2021/10/25 09:07:34;;;;;;;4.60;3.00;;;11.10;99.90;;;;;;5082535;28;20460;-88
2021/10/25 09:10:06;;;;;;;3.60;3.17;;;11.10;99.90;;;;;;5081657;28;20445;-89
2021/10/25 09:12:33;;;;;;;3.23;2.83;;;11.20;99.90;;;;;;5081829;28;20528;-88
2021/10/25 09:15:01;;;;;;;5.07;2.60;;;;;;;;;;5047764;28;20448;-89
2021/10/25 09:17:28;;;;;;;3.90;3.17;;;;;;;;;;5081813;28;20454;-88
2021/10/25 09:20:03;;;;;;;3.57;2.73;;;11.90;99.90;;;;;;5080831;28;20454;-88
2021/10/25 09:22:30;;;;;;;2.90;2.60;;;;;;;;;;5082243;28;20487;-89
2021/10/25 09:24:59;;;;;;;6.60;3.27;;;13.20;99.90;;;;;;5079892;28;20449;-89
2021/10/25 09:27:32;;;;;;;3.73;3.00;;;13.70;99.90;;;;;;5079102;28;20446;-89
2021/10/25 09:30:09;;;;;;;4.50;3.10;;;13.70;99.90;;;;;;5090385;23;20470;-90
2021/10/25 09:32:36;;;;;;;2.97;2.50;;;;;;;;;;5101187;28;20468;-90
2021/10/25 09:35:06;;;;;;;6.40;2.40;;;13.50;99.90;;;;;;5110842;22;20488;-90
2021/10/25 09:37:40;;;;;;;6.33;2.70;;;13.60;99.90;;;;;;5068274;28;20428;-89
2021/10/25 09:40:21;;;;;;;3.13;2.83;;;13.70;99.90;;;;;;5102634;28;20538;-89
2021/10/25 09:42:59;;;;;;;2.60;2.40;;;;;;;;;;5102943;28;20487;-88
2021/10/25 09:51:11;;;;;;;6.60;3.27;;;;;;;;;;5105038;28;20443;-89
2021/10/25 09:53:43;;;;;;;3.80;2.90;;;16.50;98.80;;;;;;5103583;28;20542;-89
2021/10/25 09:56:15;;;;;;;2.80;2.50;;;;;;;;;;5102174;28;20525;-92
2021/10/25 09:58:53;;;;;;;6.00;2.13;;;16.70;98.60;;;;;;5099614;28;20445;-89
2021/10/25 10:01:25;;;;;;;2.53;2.33;;;;;;;;;;5101771;28;20459;-90
2021/10/25 10:03:53;;;;;;;4.30;2.57;;;;;;;;;;5103270;28;20462;-93
2021/10/25 10:06:20;;;;;;;4.60;2.63;;;16.50;95.70;;;;;;5097141;28;20448;-89
2021/10/25 10:08:48;;;;;;;2.37;2.17;;;16.40;96.10;;;;;;5096852;28;20802;-93
2021/10/25 10:11:18;;;;;;;5.33;2.73;;;16.20;95.90;;;;;;5097192;28;20444;-89
2021/10/25 10:13:46;;;;;;;3.73;2.67;;;15.80;96.30;;;;;;5097297;28;20490;-93
2021/10/25 10:16:14;;;;;;;3.37;2.97;;;;;;;;;;5101771;28;20479;-89
2021/10/25 10:18:45;;;;;;;2.97;2.20;;;15.20;97.70;;;;;;5109172;28;20460;-88
2021/10/25 10:21:15;;;;;;;3.83;2.90;;;15.40;98.10;;;;;;5104871;22;20489;-89
2021/10/25 10:23:46;;;;;;;2.87;2.57;;;15.30;98.70;;;;;;5070570;28;20490;-89
2021/10/25 10:26:15;;;;;;;2.90;2.27;;;15.30;99.20;;;;;;5074619;28;20435;-89
2021/10/25 10:28:49;;;;;;;3.50;2.60;;;15.80;97.60;;;;;;5114284;23;20496;-89
2021/10/25 10:31:18;;;;;;;7.63;2.80;;;16.10;98.40;;;;;;5113571;22;20488;-90
2021/10/25 10:33:50;;;;;;;9.50;2.60;;;16.30;98.50;;;;;;5100860;22;20514;-91
2021/10/25 10:36:21;;;;;;;2.93;2.10;;;17.10;97.20;;;;;;5091016;28;20448;-88
2021/10/25 10:38:51;;;;;;;3.17;2.50;;;18.20;95.60;;;;;;5093511;28;20487;-89
2021/10/25 10:41:22;;;;;;;2.83;2.20;;;18.80;97.00;;;;;;5091920;28;20442;-90
2021/10/25 10:44:01;;;;;;;2.70;2.50;;;19.10;96.10;;;;;;5082950;28;20524;-90
2021/10/25 10:46:41;;;;;;;3.80;3.47;;;19.00;93.20;;;;;;5092698;28;20458;-90
2021/10/25 10:49:20;;;;;;;3.33;2.53;;;18.20;92.80;;;;;;5090299;28;20808;-90
2021/10/25 10:55:00;;;;;;;2.50;2.20;;;17.00;93.70;;;;;;5089941;28;20925;-90
2021/10/25 10:58:11;;;;;;;3.33;2.50;;;16.50;94.80;;;;;;5089261;28;20480;-89
2021/10/25 11:00:44;;;;;;;6.30;2.57;;;16.10;96.00;;;;;;5085238;28;20453;-93
2021/10/25 11:03:17;;;;;;;2.43;2.23;;;16.00;95.30;;;;;;5077508;28;20450;-91
2021/10/25 11:05:45;;;;;;;3.00;2.43;;;16.20;95.90;;;;;;5076611;28;20438;-94
2021/10/25 11:08:16;;;;;;;3.27;2.63;;;16.90;95.90;;;;;;5076936;28;20449;-94
2021/10/25 11:10:45;;;;;;;3.50;2.40;;;17.40;96.10;;;;;;5075767;28;20482;-90
2021/10/25 11:13:20;;;;;;;2.67;2.47;;;18.40;94.20;;;;;;5078456;28;20842;-94
2021/10/25 11:16:00;;;;;;;3.60;2.30;;;18.40;92.90;;;;;;5084336;28;20870;-87
2021/10/25 11:18:29;;;;;;;2.20;2.00;;;17.80;93.90;;;;;;5086093;28;20435;-90
2021/10/25 11:21:16;;;;;;;2.90;2.53;;;18.20;94.20;;;;;;5072883;28;20524;-87
2021/10/25 11:23:47;;;;;;;3.83;2.53;;;18.80;94.70;;;;;;5061046;28;20818;-90
2021/10/25 11:26:18;;;;;;;2.90;2.60;;;19.10;94.10;;;;;;5065010;28;20450;-87
2021/10/25 11:29:07;;;;;;;5.50;2.73;;;19.40;95.40;;;;;;5066113;28;20805;-91
2021/10/25 11:31:39;;;;;;;4.53;3.10;;;19.40;98.10;;;;;;5066141;28;20469;-89
2021/10/25 11:34:19;;;;;;;2.43;2.23;;;20.20;96.00;;;;;;5068811;28;20476;-88
2021/10/25 11:37:00;;;;;;;3.13;2.20;;;20.20;95.00;;;;;;5065847;28;20934;-88
2021/10/25 11:39:30;;;;;;;4.17;3.03;;;20.40;94.10;;;;;;5100242;23;20494;-90
2021/10/25 11:41:57;;;;;;;4.10;3.10;;;;;;;;;;5103749;28;20472;-89
2021/10/25 11:44:24;;;;;;;2.57;2.37;;;;;;;;;;5096733;28;20449;-89
2021/10/25 11:46:55;;;;;;;5.67;2.40;;;;;;;;;;5098970;28;20451;-88
2021/10/25 11:49:26;;;;;;;4.60;2.83;;;20.00;90.90;;;;;;5098346;28;20486;-95
2021/10/25 11:51:55;;;;;;;5.57;3.10;;;18.60;92.20;;;;;;5115106;22;20476;-90
2021/10/25 11:54:22;;;;;;;6.70;2.87;;;;;;;;;;5104950;28;20492;-88
2021/10/25 11:56:50;;;;;;;3.73;2.63;;;;;;;;;;5106960;28;20444;-89
2021/10/25 11:59:17;;;;;;;3.97;2.50;;;;;;;;;;5107027;28;20440;-88
2021/10/25 12:01:45;;;;;;;4.20;2.70;;;;;;;;;;5103974;22;20492;-87
2021/10/25 12:04:14;;;;;;;2.60;2.00;;;;;;;;;;5086415;28;20438;-87
2021/10/25 12:06:42;;;;;;;10.10;2.70;;;;;;;;;;5083833;28;20533;-92
2021/10/25 12:09:10;;;;;;;2.43;2.23;;;20.10;89.50;;;;;;5077063;28;20806;-88
2021/10/25 12:11:50;;;;;;;1.27;1.17;;;20.00;84.00;;;;;;5014332;28;20456;-89
2021/10/25 12:14:22;;;;;;;2.63;1.50;;;20.00;86.50;;;;;;5017722;28;20500;-88
2021/10/25 12:16:50;;;;;;;3.37;1.97;;;;;;;;;;5069412;23;20479;-89
2021/10/25 12:19:18;;;;;;;2.93;1.87;;;20.70;89.60;;;;;;5111213;23;20556;-88
2021/10/25 12:21:47;;;;;;;3.17;2.63;;;21.10;89.40;;;;;;5099480;28;20472;-88
2021/10/25 12:24:15;;;;;;;2.87;1.70;;;;;;;;;;5125889;28;20808;-88
2021/10/25 12:26:43;;;;;;;4.93;1.70;;;20.20;76.70;;;;;;5125555;28;20463;-88
2021/10/25 12:29:15;;;;;;;2.97;1.60;;;19.80;75.60;;;;;;5118768;28;20448;-88
2021/10/25 12:31:42;;;;;;;1.90;1.23;;;;;;;;;;5125986;28;20448;-92
2021/10/25 12:34:09;;;;;;;1.53;1.10;;;;;;;;;;5132175;28;20483;-89
2021/10/25 12:36:43;;;;;;;2.33;1.50;;;19.00;79.20;;;;;;5121126;22;20469;-89
2021/10/25 12:39:12;;;;;;;2.20;1.73;;;20.00;80.70;;;;;;5096750;23;20496;-89
2021/10/25 12:41:47;;;;;;;1.30;1.20;;;20.00;76.90;;;;;;5112788;28;20445;-89
2021/10/25 12:44:28;;;;;;;6.20;5.10;;;20.10;80.00;;;;;;5123953;23;20514;-88
2021/10/25 12:47:08;;;;;;;13.53;9.70;;;;;;;;;;5129100;28;20447;-89
2021/10/25 12:49:35;;;;;;;1.30;1.13;;;;;;;;;;5133565;28;20423;-90
2021/10/25 12:52:13;;;;;;;3.40;2.20;;;19.50;77.00;;;;;;5125942;22;21104;-89
2021/10/25 12:57:18;;;;;;;2.37;1.70;;;19.90;78.80;;;;;;5087957;23;20515;-88
2021/10/25 12:59:45;;;;;;;1.53;1.40;;;;;;;;;;5117725;22;20227;-88
2021/10/25 13:02:23;;;;;;;1.50;1.40;;;20.10;75.80;;;;;;5085080;28;20433;-90
2021/10/25 13:04:50;;;;;;;1.30;1.20;;;;;;;;;;5101210;28;20533;-88
2021/10/25 13:07:20;;;;;;;2.63;1.80;;;20.10;75.90;;;;;;5103836;28;20440;-89
2021/10/25 13:09:49;;;;;;;2.17;1.60;;;20.60;75.70;;;;;;5119153;23;20491;-89
2021/10/25 13:12:16;;;;;;;3.00;1.57;;;;;;;;;;5104845;22;20493;-88
2021/10/25 13:14:43;;;;;;;6.40;1.63;;;;;;;;;;5077731;28;20434;-89
2021/10/25 13:17:11;;;;;;;1.77;1.53;;;;;;;;;;5080301;28;20441;-88
2021/10/25 13:19:38;;;;;;;2.27;1.80;;;;;;;;;;5080049;28;20454;-87
2021/10/25 13:22:06;;;;;;;2.80;1.80;;;;;;;;;;5061553;28;20443;-88
2021/10/25 13:24:35;;;;;;;3.97;1.40;;;20.60;76.80;;;;;;5061979;28;21004;-88
2021/10/25 13:27:02;;;;;;;1.60;1.30;;;;;;;;;;5062459;28;20449;-90
2021/10/25 13:29:29;;;;;;;1.73;1.33;;;;;;;;;;5063630;28;20442;-91
2021/10/25 13:31:56;;;;;;;1.53;1.43;;;21.40;74.60;;;;;;5107776;23;20503;-88
2021/10/25 13:34:23;;;;;;;1.63;1.40;;;;;;;;;;5110264;28;20916;-89
2021/10/25 13:36:52;;;;;;;1.63;1.40;;;;;;;;;;5115483;23;20433;-90
2021/10/25 13:39:21;;;;;;;1.60;1.40;;;;;;;;;;5085900;28;20462;-90
2021/10/25 13:41:52;;;;;;;1.83;1.50;;;;;;;;;;5087057;28;20445;-92
2021/10/25 13:44:20;;;;;;;1.93;1.40;;;;;;;;;;5083003;28;20474;-89
2021/10/25 13:46:47;;;;;;;1.90;1.70;;;;;;;;;;5086218;28;20521;-90
2021/10/25 13:49:14;;;;;;;2.23;1.40;;;;;;;;;;5084385;28;20430;-89
2021/10/25 13:51:41;;;;;;;1.50;1.40;;;;;;;;;;5078795;28;20457;-90
2021/10/25 13:54:09;;;;;;;6.20;2.90;;;;;;;;;;5094700;23;20476;-90
2021/10/25 13:56:37;;;;;;;2.00;1.60;;;;;;;;;;5129825;28;20435;-92
2021/10/25 13:59:06;;;;;;;3.03;2.00;;;21.00;71.70;;;;;;5127935;22;20461;-89
2021/10/25 14:01:33;;;;;;;2.87;1.60;;;;;;;;;;5066914;28;20452;-90
2021/10/25 14:04:02;;;;;;;1.70;1.40;;;;;;;;;;5131906;22;20477;-89
2021/10/25 14:06:31;;;;;;;2.80;1.60;;;;;;;;;;5074028;28;20449;-89
2021/10/25 14:09:13;;;;;;;1.60;1.20;;;21.10;71.10;;;;;;5109922;22;20544;-89
2021/10/25 14:11:43;;;;;;;2.30;1.40;;;;;;;;;;5111854;28;20425;-90
2021/10/25 14:14:19;;;;;;;4.00;1.53;;;;;;;;;;5116846;28;20515;-90
2021/10/25 14:16:54;;;;;;;2.33;1.70;;;;;;;;;;5111326;28;20486;-91
2021/10/25 14:19:27;;;;;;;1.93;1.40;;;20.80;69.40;;;;;;5133809;23;20562;-90
2021/10/25 14:22:00;;;;;;;2.30;1.63;;;20.80;70.00;;;;;;5208858;22;20493;-92
2021/10/25 14:24:27;;;;;;;2.43;1.47;;;;;;;;;;5092672;28;20484;-89
2021/10/25 14:26:54;;;;;;;1.50;1.33;;;;;;;;;;5122444;22;20495;-89
2021/10/25 14:29:23;;;;;;;2.40;1.73;;;;;;;;;;5117356;22;20485;-90
2021/10/25 14:34:20;;;;;;;2.47;1.93;;;18.00;79.90;;;;;;5098702;23;20585;-94
2021/10/25 14:36:52;;;;;;;3.53;2.20;;;17.80;81.80;;;;;;5109493;28;20658;-90
2021/10/25 14:39:22;;;;;;;3.20;1.67;;;;;;;;;;5102724;23;21054;-89
2021/10/25 14:42:04;;;;;;;2.37;1.87;;;17.50;87.10;;;;;;5090391;28;20438;-88
2021/10/25 14:44:37;;;;;;;3.90;2.30;;;;;;;;;;5089190;28;20503;-94
2021/10/25 14:55:31;;;;;;;2.73;2.13;;;16.50;91.00;;;;;;5132586;28;20983;-87
2021/10/25 14:57:58;;;;;;;4.43;3.20;;;;;;;;;;5132336;28;20440;-88
2021/10/25 15:00:27;;;;;;;4.53;2.10;;;;;;;;;;5131833;28;20425;-88
2021/10/25 15:02:54;;;;;;;7.50;2.70;;;;;;;;;;5133027;28;20420;-88
2021/10/25 15:05:22;;;;;;;4.53;2.00;;;;;;;;;;5132441;28;20470;-87
2021/10/25 15:07:49;;;;;;;3.53;2.40;;;;;;;;;;5104566;22;20543;-88
2021/10/25 15:10:16;;;;;;;5.90;3.33;;;;;;;;;;5101543;23;20466;-88
2021/10/25 15:12:44;;;;;;;3.73;2.30;;;15.30;99.10;;;;;;5111513;28;20420;-88
2021/10/25 15:15:11;;;;;;;12.33;2.53;;;15.10;99.60;;;;;;5112798;28;20441;-87
2021/10/25 15:17:42;;;;;;;3.13;2.33;;;;;;;;;;5118054;22;20857;-89
2021/10/25 15:20:11;;;;;;;4.77;2.73;;;15.10;99.90;;;;;;5116780;22;20472;-88
2021/10/25 15:22:38;;;;;;;7.27;2.50;;;;;;;;;;5068850;22;20490;-88
2021/10/25 15:25:07;;;;;;;4.80;3.37;;;15.40;99.90;;;;;;5111105;28;20582;-87
2021/10/25 15:27:37;;;;;;;3.33;3.03;;;;;;;;;;5106222;28;20540;-92
2021/10/25 15:30:04;;;;;;;4.97;3.73;;;;;;;;;;5098486;28;20452;-95
2021/10/25 15:32:31;;;;;;;4.43;3.30;;;;;;;;;;5097108;28;20813;-91
2021/10/25 15:35:00;;;;;;;6.10;3.53;;;;;;;;;;5101095;28;21004;-94
2021/10/25 15:37:30;;;;;;;5.17;3.00;;;15.90;99.90;;;;;;5100531;28;20453;-91
2021/10/25 15:39:59;;;;;;;6.10;3.50;;;15.70;98.70;;;;;;5098805;28;20455;-89
2021/10/25 15:42:26;;;;;;;4.80;3.60;;;;;;;;;;5106032;28;20455;-89
2021/10/25 15:44:53;;;;;;;5.00;3.37;;;;;;;;;;5109410;28;20480;-89
2021/10/25 15:55:48;;;;;;;6.13;4.30;;;;;;;;;;5106228;28;20439;-95